MNL weather

Ninoy Aquino International Airport
Manila, Philippines

Public forecast

Using degrees Celsius for public forecast. Weather courtesy of forecast.io.

METAR (pilot weather report)

Retrieved 2017/01/20 19:00 UTC (1 hour ago):

RPLL 201900Z VRB01KT 9999 FEW025 25/20 Q1013 NOSIG RMK A2991

TAF (pilot weather forecast)

Retrieved 2017/01/20 18:00 UTC (2 hours ago):

TAF RPLL 201700Z 2018/2124 12008KT 9999 FEW025 BKN300 TX30/2105Z TN23/2021Z TEMPO 2018/2023 VRB02KT FEW025 TEMPO 2100/2106 11012KT FEW025 SCT100 BKN290